Time;durP1;ratioP1;P1;durP2;ratioP2;P2;SDS_P1;SDS_P2;PMS_P1;PMS_P2;Temp;Humidity;BMP_temperature;BMP_pressure;BME280_temperature;BME280_humidity;BME280_pressure;Samples;Min_cycle;Max_cycle;Signal;HPM_P1;HPM_P2
2022/01/24 00:00:24;;;;;;;13.48;6.60;;;4.80;99.90;;;;;;5050393;28;20097;-82
2022/01/24 00:02:50;;;;;;;12.85;6.40;;;4.80;99.90;;;;;;5043094;28;20029;-82
2022/01/24 00:05:19;;;;;;;11.27;6.43;;;4.80;99.90;;;;;;5055455;28;20098;-82
2022/01/24 00:07:45;;;;;;;14.98;7.40;;;4.80;99.90;;;;;;5035835;28;20033;-82
2022/01/24 00:10:16;;;;;;;13.88;6.32;;;4.80;99.90;;;;;;5057551;28;20037;-82
2022/01/24 00:18:28;;;;;;;14.98;8.48;;;4.80;99.90;;;;;;5058938;28;20505;-82
2022/01/24 00:26:45;;;;;;;12.00;6.65;;;4.80;99.90;;;;;;5060724;28;20026;-81
2022/01/24 00:29:11;;;;;;;13.82;7.18;;;4.80;99.90;;;;;;5039981;28;20037;-81
2022/01/24 00:31:37;;;;;;;13.63;7.75;;;4.80;99.90;;;;;;5055955;28;20083;-81
2022/01/24 00:34:03;;;;;;;16.52;8.90;;;4.80;99.90;;;;;;5055778;28;20029;-81
2022/01/24 00:36:29;;;;;;;14.63;7.63;;;4.70;99.90;;;;;;5075463;28;20048;-81
2022/01/24 00:38:55;;;;;;;14.88;7.45;;;4.80;99.90;;;;;;5043601;28;20470;-82
2022/01/24 00:41:21;;;;;;;15.65;7.45;;;4.70;99.90;;;;;;5055621;28;20036;-82
2022/01/24 00:46:36;;;;;;;13.40;6.72;;;4.80;99.90;;;;;;5058353;28;20404;-81
2022/01/24 00:57:00;;;;;;;14.05;7.40;;;4.70;99.90;;;;;;5054168;28;20053;-82
2022/01/24 00:59:26;;;;;;;14.07;7.63;;;4.70;99.90;;;;;;5066967;28;20044;-82
2022/01/24 01:01:51;;;;;;;15.10;8.05;;;4.70;99.90;;;;;;5057290;28;20021;-81
2022/01/24 01:04:19;;;;;;;15.88;7.68;;;4.70;99.90;;;;;;5056910;28;20024;-81
2022/01/24 01:06:46;;;;;;;11.80;5.70;;;4.70;99.90;;;;;;5052519;28;20025;-81
2022/01/24 01:20:09;;;;;;;13.02;7.28;;;4.70;99.90;;;;;;5059575;28;20024;-82
2022/01/24 01:22:34;;;;;;;13.75;7.55;;;4.70;99.90;;;;;;5064262;28;20029;-82
2022/01/24 01:25:00;;;;;;;14.70;8.57;;;4.70;99.90;;;;;;5067997;28;20057;-82
2022/01/24 01:27:34;;;;;;;14.48;8.32;;;4.70;99.90;;;;;;5063616;28;20401;-81
2022/01/24 01:30:09;;;;;;;14.05;7.95;;;4.70;99.90;;;;;;5051864;28;20029;-82
2022/01/24 01:33:01;;;;;;;13.27;8.30;;;4.70;99.90;;;;;;5042492;28;20031;-82
2022/01/24 01:57:56;;;;;;;14.35;8.52;;;4.70;99.90;;;;;;4910099;29;20072;-81
2022/01/24 02:00:21;;;;;;;13.55;7.63;;;4.70;99.90;;;;;;4926364;29;20032;-82
2022/01/24 02:02:47;;;;;;;15.73;8.57;;;4.60;99.90;;;;;;4910695;29;20115;-82
2022/01/24 02:05:13;;;;;;;14.18;7.40;;;4.70;99.90;;;;;;4923882;29;20036;-82
2022/01/24 02:07:46;;;;;;;15.95;8.65;;;4.60;99.90;;;;;;4910187;29;20545;-81
2022/01/24 02:10:12;;;;;;;16.60;9.15;;;4.60;99.90;;;;;;4925939;29;20036;-81
2022/01/24 02:12:38;;;;;;;15.70;8.15;;;4.60;99.90;;;;;;4949187;28;20590;-82
2022/01/24 02:15:04;;;;;;;16.55;8.82;;;4.60;99.90;;;;;;4966020;28;20106;-81
2022/01/24 02:17:43;;;;;;;15.48;8.98;;;4.60;99.90;;;;;;4983189;28;20103;-81
2022/01/24 02:20:26;;;;;;;14.17;7.30;;;4.60;99.90;;;;;;4948678;28;20062;-81
2022/01/24 02:23:17;;;;;;;15.77;8.98;;;4.60;99.90;;;;;;4983262;28;20043;-81
2022/01/24 02:25:38;;;;;;;13.55;7.82;;;4.60;99.90;;;;;;4982746;28;20031;-81
2022/01/24 02:28:05;;;;;;;14.57;8.02;;;4.50;99.90;;;;;;4967124;28;20042;-81
2022/01/24 02:30:55;;;;;;;15.60;8.63;;;4.60;99.90;;;;;;5042924;28;20061;-81
2022/01/24 02:33:21;;;;;;;13.90;8.45;;;4.60;99.90;;;;;;5055795;28;20036;-80
2022/01/24 02:35:47;;;;;;;16.63;9.15;;;4.50;99.90;;;;;;5068371;28;20104;-81
2022/01/24 02:51:01;;;;;;;14.55;7.80;;;4.30;99.90;;;;;;5075583;28;20025;-81
2022/01/24 02:53:29;;;;;;;13.40;7.68;;;4.30;99.90;;;;;;5059384;28;20040;-82
2022/01/24 02:55:55;;;;;;;14.95;8.70;;;4.20;99.90;;;;;;5057388;28;20064;-81
2022/01/24 03:02:08;;;;;;;15.23;7.38;;;4.10;99.90;;;;;;5060217;28;20035;-82
2022/01/24 03:04:34;;;;;;;13.57;7.28;;;4.00;99.90;;;;;;5041819;28;20042;-81
2022/01/24 03:06:59;;;;;;;15.07;8.20;;;4.00;99.90;;;;;;5038218;28;20033;-81
2022/01/24 03:09:25;;;;;;;16.30;8.32;;;3.90;99.90;;;;;;5031500;28;20484;-80
2022/01/24 03:14:29;;;;;;;13.52;7.60;;;3.70;99.90;;;;;;5036296;28;20033;-82
2022/01/24 03:16:55;;;;;;;14.10;7.70;;;3.60;99.90;;;;;;5041904;28;20044;-81
2022/01/24 03:19:21;;;;;;;14.02;7.20;;;3.50;99.90;;;;;;5038351;28;20049;-82
2022/01/24 03:21:47;;;;;;;15.50;7.47;;;3.40;99.90;;;;;;5039198;28;20021;-82
2022/01/24 03:31:55;;;;;;;11.60;5.82;;;3.30;99.90;;;;;;5021605;28;20103;-80
2022/01/24 03:34:20;;;;;;;12.13;6.70;;;3.20;99.90;;;;;;5025573;28;20037;-81
2022/01/24 03:36:46;;;;;;;10.80;6.60;;;3.20;99.90;;;;;;5025814;28;20032;-82
2022/01/24 03:39:11;;;;;;;11.52;6.82;;;3.20;99.90;;;;;;5024469;28;20136;-81
2022/01/24 03:41:39;;;;;;;12.77;6.60;;;3.20;99.90;;;;;;5025327;28;20032;-82
2022/01/24 03:44:06;;;;;;;9.18;5.65;;;3.20;99.90;;;;;;5023258;28;20033;-82
2022/01/24 03:46:48;;;;;;;9.05;5.50;;;3.10;99.90;;;;;;5041988;28;20017;-82
2022/01/24 03:49:45;;;;;;;10.73;5.82;;;3.20;99.90;;;;;;5041679;28;20034;-82
2022/01/24 03:51:59;;;;;;;10.57;6.07;;;3.10;99.90;;;;;;5054935;28;20034;-82
2022/01/24 03:54:25;;;;;;;8.38;4.97;;;3.10;99.90;;;;;;5021801;28;20057;-82
2022/01/24 03:56:50;;;;;;;10.82;5.82;;;3.10;99.90;;;;;;5058605;28;20083;-82
2022/01/24 03:59:16;;;;;;;9.85;5.32;;;3.10;99.90;;;;;;5039553;28;20043;-82
2022/01/24 04:01:41;;;;;;;9.38;4.72;;;3.10;99.90;;;;;;5041305;28;20025;-82
2022/01/24 04:04:07;;;;;;;8.98;4.72;;;3.10;99.90;;;;;;5038203;28;20029;-81
2022/01/24 04:06:33;;;;;;;8.43;4.97;;;3.10;99.90;;;;;;5037284;28;20040;-82
2022/01/24 04:08:58;;;;;;;9.35;4.47;;;3.10;99.90;;;;;;5037182;28;20422;-81
2022/01/24 04:11:32;;;;;;;10.57;5.43;;;3.10;99.90;;;;;;5038226;28;20029;-81
2022/01/24 04:14:10;;;;;;;9.45;4.78;;;3.20;99.90;;;;;;5041301;28;20085;-82
2022/01/24 04:16:40;;;;;;;7.85;4.63;;;3.20;99.90;;;;;;5036253;28;20029;-81
2022/01/24 04:22:04;;;;;;;8.45;3.83;;;3.20;99.90;;;;;;4981245;28;20073;-82
2022/01/24 04:24:29;;;;;;;7.35;3.78;;;3.30;99.90;;;;;;4981135;28;20035;-81
2022/01/24 04:26:55;;;;;;;6.43;2.95;;;3.30;99.90;;;;;;4951175;28;20070;-82
2022/01/24 04:29:20;;;;;;;5.88;2.75;;;3.30;99.90;;;;;;4949048;28;20034;-81
2022/01/24 04:31:46;;;;;;;5.60;3.05;;;3.30;99.90;;;;;;4961570;28;20757;-82
2022/01/24 04:34:12;;;;;;;6.70;3.13;;;3.30;99.90;;;;;;4962421;28;20049;-81
2022/01/24 04:36:37;;;;;;;5.47;3.22;;;3.40;99.90;;;;;;4961441;28;20051;-81
2022/01/24 04:39:04;;;;;;;5.82;3.45;;;3.40;99.90;;;;;;4945082;28;20062;-81
2022/01/24 04:41:35;;;;;;;4.88;2.47;;;3.40;99.90;;;;;;4965739;28;20032;-81
2022/01/24 04:52:13;;;;;;;5.50;2.72;;;3.50;99.90;;;;;;4984634;28;20058;-81
2022/01/24 04:54:42;;;;;;;6.10;2.72;;;3.50;99.90;;;;;;4965374;28;20034;-81
2022/01/24 04:57:09;;;;;;;4.93;2.78;;;3.50;99.90;;;;;;4949578;28;20023;-81
2022/01/24 04:59:37;;;;;;;5.70;2.55;;;3.50;99.90;;;;;;5042135;28;20083;-81
2022/01/24 05:02:02;;;;;;;5.07;2.90;;;3.50;99.90;;;;;;5028438;28;20037;-80
2022/01/24 05:04:28;;;;;;;4.13;2.50;;;3.50;99.90;;;;;;5044771;28;20120;-82
2022/01/24 05:07:51;;;;;;;6.45;3.13;;;3.60;99.90;;;;;;5045688;28;20010;-83
2022/01/24 05:10:24;;;;;;;5.28;2.45;;;3.60;99.90;;;;;;5043160;28;20052;-81
2022/01/24 05:23:38;;;;;;;4.97;2.63;;;3.60;99.90;;;;;;5046030;28;20029;-82
2022/01/24 05:26:06;;;;;;;6.20;2.80;;;3.50;99.90;;;;;;5024085;28;20033;-81
2022/01/24 05:28:34;;;;;;;6.03;3.08;;;3.50;99.90;;;;;;5023264;28;20032;-81
2022/01/24 05:31:01;;;;;;;5.80;2.80;;;3.50;99.90;;;;;;5024548;28;20029;-80
2022/01/24 05:33:27;;;;;;;4.68;2.55;;;3.60;99.90;;;;;;5026762;28;20076;-80
2022/01/24 05:35:53;;;;;;;5.78;2.35;;;3.50;99.90;;;;;;5023785;28;20026;-81
2022/01/24 05:38:21;;;;;;;5.72;2.40;;;3.50;99.90;;;;;;5027453;28;20456;-81
2022/01/24 05:40:47;;;;;;;5.57;3.28;;;3.50;99.90;;;;;;5043928;28;20029;-81
2022/01/24 05:43:13;;;;;;;4.72;2.60;;;3.60;99.90;;;;;;5034628;28;20086;-81
2022/01/24 05:45:38;;;;;;;6.00;2.90;;;3.50;99.90;;;;;;5043684;28;20042;-81
2022/01/24 05:48:04;;;;;;;5.38;2.55;;;3.50;99.90;;;;;;5043391;28;20056;-81
2022/01/24 05:50:30;;;;;;;4.05;2.38;;;3.50;99.90;;;;;;5026553;28;20394;-81
2022/01/24 05:52:56;;;;;;;4.32;2.08;;;3.60;99.90;;;;;;5041572;28;20068;-80
2022/01/24 05:55:22;;;;;;;3.45;2.08;;;3.50;99.90;;;;;;5043256;28;20033;-79
2022/01/24 05:57:48;;;;;;;4.47;2.08;;;3.50;99.90;;;;;;5040430;28;20033;-79
2022/01/24 06:00:14;;;;;;;4.90;2.45;;;3.50;99.90;;;;;;5044136;28;20409;-80
2022/01/24 06:02:40;;;;;;;3.70;2.15;;;3.50;99.90;;;;;;5042669;28;20029;-80
2022/01/24 06:05:07;;;;;;;3.97;1.52;;;3.50;99.90;;;;;;5026345;28;20033;-79
2022/01/24 06:07:32;;;;;;;5.97;2.72;;;3.50;99.90;;;;;;5023846;28;20053;-80
2022/01/24 06:09:58;;;;;;;5.03;2.58;;;3.50;99.90;;;;;;5042469;28;20029;-80
2022/01/24 06:12:41;;;;;;;4.15;2.20;;;3.50;99.90;;;;;;5022227;28;20033;-79
2022/01/24 06:15:07;;;;;;;3.83;2.08;;;3.50;99.90;;;;;;5040397;28;20032;-80
2022/01/24 06:17:33;;;;;;;5.05;2.92;;;3.50;99.90;;;;;;5025915;28;20041;-79
2022/01/24 06:19:58;;;;;;;3.53;1.90;;;3.60;99.90;;;;;;5039403;28;20073;-79
2022/01/24 06:22:24;;;;;;;4.45;2.33;;;3.60;99.90;;;;;;5040327;28;20057;-80
2022/01/24 06:24:49;;;;;;;4.50;2.38;;;3.50;99.90;;;;;;5039546;28;20097;-79
2022/01/24 06:27:15;;;;;;;4.38;2.15;;;3.50;99.90;;;;;;5040824;28;20061;-80
2022/01/24 06:29:41;;;;;;;5.07;2.72;;;3.50;99.90;;;;;;5042381;28;20040;-79
2022/01/24 06:32:07;;;;;;;4.88;2.60;;;3.50;99.90;;;;;;5039759;28;20034;-80
2022/01/24 06:34:33;;;;;;;4.07;1.77;;;3.60;99.90;;;;;;5025449;28;20060;-80
2022/01/24 06:36:58;;;;;;;3.70;2.25;;;3.60;99.90;;;;;;5042750;28;20038;-80
2022/01/24 06:39:25;;;;;;;4.05;2.85;;;3.60;99.90;;;;;;5041506;28;20222;-79
2022/01/24 06:42:08;;;;;;;4.85;3.10;;;3.60;99.90;;;;;;5022805;28;20132;-79
2022/01/24 06:44:33;;;;;;;7.25;3.17;;;3.60;99.90;;;;;;5039984;28;20482;-80
2022/01/24 06:46:59;;;;;;;4.53;2.45;;;3.60;99.90;;;;;;5043526;28;20034;-80
2022/01/24 06:49:24;;;;;;;3.97;2.30;;;3.60;99.90;;;;;;5042040;28;20029;-79
2022/01/24 06:51:50;;;;;;;4.78;2.78;;;3.60;99.90;;;;;;5058806;28;20052;-79
2022/01/24 06:54:16;;;;;;;4.65;3.03;;;3.60;99.90;;;;;;5025630;28;20033;-79
2022/01/24 06:56:41;;;;;;;5.22;2.63;;;3.60;99.90;;;;;;5019555;28;20048;-80
2022/01/24 06:59:07;;;;;;;4.57;1.88;;;3.60;99.90;;;;;;5043371;28;20037;-80
2022/01/24 07:01:33;;;;;;;4.53;2.33;;;3.60;99.90;;;;;;5037866;28;20036;-79
2022/01/24 07:03:59;;;;;;;3.38;2.15;;;3.60;99.90;;;;;;5021643;28;20029;-79
2022/01/24 07:06:24;;;;;;;4.57;2.65;;;3.60;99.90;;;;;;5041980;28;20022;-80
2022/01/24 07:08:50;;;;;;;5.95;2.88;;;3.60;99.90;;;;;;5042359;28;20434;-79
2022/01/24 07:11:16;;;;;;;4.20;2.63;;;3.60;99.90;;;;;;5021313;28;20036;-79
2022/01/24 07:13:41;;;;;;;4.47;3.10;;;3.60;99.90;;;;;;5058713;28;20040;-79
2022/01/24 07:16:07;;;;;;;4.40;2.47;;;3.60;99.90;;;;;;5024696;28;20041;-79
2022/01/24 07:21:01;;;;;;;4.53;3.15;;;3.60;99.90;;;;;;5041530;28;20049;-79
2022/01/24 07:23:27;;;;;;;4.90;2.90;;;3.60;99.90;;;;;;5042268;28;20048;-79
2022/01/24 07:33:29;;;;;;;3.97;2.00;;;3.70;99.90;;;;;;5040072;28;20064;-79
2022/01/24 07:35:54;;;;;;;4.25;2.83;;;3.60;99.90;;;;;;5041648;28;20044;-79
2022/01/24 07:38:20;;;;;;;4.55;2.58;;;3.70;99.90;;;;;;5057451;28;20033;-79
2022/01/24 07:40:48;;;;;;;4.07;2.53;;;3.70;99.90;;;;;;5024732;28;20026;-79
2022/01/24 07:43:26;;;;;;;5.50;3.20;;;3.70;99.90;;;;;;5025710;28;20098;-80
2022/01/24 07:46:45;;;;;;;3.72;2.65;;;3.70;99.90;;;;;;5015797;28;20033;-80
2022/01/24 07:53:27;;;;;;;4.65;2.05;;;3.70;99.90;;;;;;5040184;28;20037;-79
2022/01/24 07:56:45;;;;;;;3.72;2.13;;;3.70;99.90;;;;;;4946791;28;20089;-80
2022/01/24 07:59:10;;;;;;;3.50;2.05;;;3.80;99.90;;;;;;4960499;28;20070;-79
2022/01/24 08:01:36;;;;;;;4.65;3.03;;;3.80;99.90;;;;;;4964426;28;20035;-78
2022/01/24 08:04:02;;;;;;;5.57;2.92;;;3.80;99.90;;;;;;4964077;28;20041;-79
2022/01/24 08:06:28;;;;;;;4.05;2.63;;;3.80;99.90;;;;;;4960896;28;20027;-78
2022/01/24 08:08:53;;;;;;;4.95;3.35;;;3.80;99.90;;;;;;4956495;28;20138;-79
2022/01/24 08:11:19;;;;;;;4.63;2.97;;;3.80;99.90;;;;;;4942586;28;20034;-78
2022/01/24 08:13:48;;;;;;;5.22;2.97;;;3.90;99.90;;;;;;4962745;28;20046;-79
2022/01/24 08:16:13;;;;;;;4.32;2.75;;;3.90;99.90;;;;;;4963826;28;20092;-80
2022/01/24 08:18:39;;;;;;;6.82;4.35;;;3.90;99.90;;;;;;4960038;28;20082;-79
2022/01/24 08:21:05;;;;;;;5.70;4.05;;;3.90;99.90;;;;;;4964011;28;20039;-81
2022/01/24 08:23:30;;;;;;;5.43;3.75;;;4.00;99.90;;;;;;4962069;28;20452;-79
2022/01/24 08:25:56;;;;;;;5.18;3.40;;;4.00;99.90;;;;;;4946146;28;20057;-79
2022/01/24 08:28:21;;;;;;;5.90;4.05;;;4.00;99.90;;;;;;4963373;28;20038;-80
2022/01/24 08:30:47;;;;;;;5.45;3.88;;;4.00;99.90;;;;;;4944540;28;20034;-79
2022/01/24 08:33:13;;;;;;;4.88;3.67;;;4.00;99.90;;;;;;4993723;28;20080;-80
2022/01/24 08:35:38;;;;;;;4.22;3.28;;;4.00;99.90;;;;;;5049717;28;20032;-79
2022/01/24 08:38:04;;;;;;;4.25;3.08;;;4.10;99.90;;;;;;5040116;28;20051;-80
2022/01/24 08:40:32;;;;;;;4.45;2.92;;;4.10;99.90;;;;;;5039731;28;20029;-80
2022/01/24 08:43:02;;;;;;;5.13;3.55;;;4.10;99.90;;;;;;5040039;28;20021;-80
2022/01/24 08:45:48;;;;;;;5.10;3.22;;;4.10;99.90;;;;;;5039164;28;20045;-80
2022/01/24 08:48:16;;;;;;;4.28;2.72;;;4.20;99.90;;;;;;5056770;28;20042;-80
2022/01/24 08:50:43;;;;;;;5.85;4.35;;;4.20;99.90;;;;;;5039509;28;20034;-80
2022/01/24 08:53:10;;;;;;;6.68;3.45;;;4.20;99.90;;;;;;5036109;28;20039;-82
2022/01/24 08:55:37;;;;;;;4.60;3.33;;;4.20;99.90;;;;;;5040312;28;20036;-80
2022/01/24 08:58:05;;;;;;;4.60;2.85;;;4.30;99.90;;;;;;5018453;28;20038;-81
2022/01/24 09:00:30;;;;;;;5.45;3.80;;;4.30;99.90;;;;;;5038843;28;20057;-80
2022/01/24 09:02:56;;;;;;;4.82;3.70;;;4.30;99.90;;;;;;5038230;28;20037;-81
2022/01/24 09:05:23;;;;;;;6.75;4.10;;;4.30;99.90;;;;;;5020353;28;20030;-81
2022/01/24 09:07:50;;;;;;;4.55;3.30;;;4.30;99.90;;;;;;5038109;28;20061;-81
2022/01/24 09:10:16;;;;;;;5.63;3.85;;;4.30;99.90;;;;;;5035371;28;20032;-80
2022/01/24 09:12:42;;;;;;;6.07;4.03;;;4.40;99.90;;;;;;5040381;28;20029;-81
2022/01/24 09:15:08;;;;;;;7.13;4.40;;;4.40;99.90;;;;;;5039551;28;20060;-80
2022/01/24 09:17:34;;;;;;;5.35;3.97;;;4.40;99.90;;;;;;5040050;28;20064;-80
2022/01/24 09:20:00;;;;;;;7.75;5.20;;;4.40;99.90;;;;;;5018755;28;20041;-81
2022/01/24 09:22:26;;;;;;;3.88;2.83;;;4.40;99.90;;;;;;5035619;28;20790;-80
2022/01/24 09:24:52;;;;;;;5.43;3.90;;;4.40;99.90;;;;;;5043449;28;20029;-80
2022/01/24 09:27:18;;;;;;;5.28;3.88;;;4.50;99.90;;;;;;5022931;28;20029;-80
2022/01/24 09:29:43;;;;;;;7.78;4.72;;;4.50;99.90;;;;;;5026135;28;20053;-80
2022/01/24 09:32:09;;;;;;;5.97;4.68;;;4.50;99.90;;;;;;5059528;28;20064;-79
2022/01/24 09:34:35;;;;;;;4.15;2.75;;;4.50;99.90;;;;;;5043636;28;20041;-80
2022/01/24 09:37:00;;;;;;;5.80;4.68;;;4.60;99.90;;;;;;5044885;28;20024;-81
2022/01/24 09:39:26;;;;;;;4.40;2.63;;;4.50;99.90;;;;;;5023917;28;20465;-80
2022/01/24 09:41:53;;;;;;;5.70;4.15;;;4.60;99.90;;;;;;5058997;28;20470;-80
2022/01/24 09:44:19;;;;;;;6.82;5.07;;;4.60;99.90;;;;;;5042951;28;20089;-81
2022/01/24 09:46:45;;;;;;;6.97;4.78;;;4.60;99.90;;;;;;5041026;28;20037;-81
2022/01/24 09:49:12;;;;;;;6.13;4.63;;;4.60;99.90;;;;;;5038361;28;20033;-81
2022/01/24 09:51:37;;;;;;;6.57;4.85;;;4.60;99.90;;;;;;5023856;28;20025;-81
2022/01/24 09:54:07;;;;;;;8.75;6.07;;;4.60;99.90;;;;;;5043708;28;20028;-81
2022/01/24 09:56:34;;;;;;;7.15;5.38;;;4.60;99.90;;;;;;5057001;28;20040;-81
2022/01/24 09:59:01;;;;;;;7.45;5.18;;;4.70;99.90;;;;;;5045698;28;20419;-80
2022/01/24 10:01:27;;;;;;;7.05;5.38;;;4.70;99.90;;;;;;5039035;28;20906;-80
2022/01/24 10:04:26;;;;;;;7.75;5.40;;;4.70;99.90;;;;;;5039223;28;20399;-80
2022/01/24 10:07:07;;;;;;;9.82;7.00;;;4.70;99.90;;;;;;4995249;28;20049;-81
2022/01/24 10:09:45;;;;;;;8.60;6.43;;;4.70;99.90;;;;;;5042777;28;20029;-80
2022/01/24 10:17:36;;;;;;;9.45;6.93;;;4.80;99.90;;;;;;5042523;28;20044;-81
2022/01/24 10:20:18;;;;;;;9.18;6.35;;;4.80;99.90;;;;;;5038864;28;20293;-82
2022/01/24 10:23:10;;;;;;;9.52;6.35;;;4.80;99.90;;;;;;5021228;28;20057;-80
2022/01/24 10:25:51;;;;;;;11.63;6.63;;;4.90;99.90;;;;;;5041694;28;20037;-80
2022/01/24 10:28:32;;;;;;;8.50;6.07;;;4.90;99.90;;;;;;5025351;28;20095;-81
2022/01/24 10:31:11;;;;;;;6.32;3.88;;;4.90;99.90;;;;;;5041723;28;20037;-81
2022/01/24 10:34:10;;;;;;;7.85;5.93;;;4.90;99.90;;;;;;5042649;28;20045;-81
2022/01/24 10:36:39;;;;;;;6.93;4.72;;;4.90;99.90;;;;;;5020888;28;20430;-80
2022/01/24 10:39:19;;;;;;;6.95;5.28;;;4.90;99.90;;;;;;5041129;28;20033;-80
2022/01/24 10:41:59;;;;;;;5.17;3.80;;;4.90;99.90;;;;;;5039335;28;20024;-81
2022/01/24 10:44:34;;;;;;;;;;;5.00;99.90;;;;;;5043768;28;20044;-79
2022/01/24 10:47:20;;;;;;;2.75;1.55;;;4.90;99.90;;;;;;5058401;28;19996;-81
2022/01/24 10:49:50;;;;;;;4.03;2.65;;;5.00;99.90;;;;;;5038807;28;20036;-81
2022/01/24 10:52:30;;;;;;;4.80;3.35;;;5.00;99.90;;;;;;5021795;28;20045;-81
2022/01/24 10:55:18;;;;;;;6.03;4.70;;;5.10;99.90;;;;;;5038192;28;20045;-80
2022/01/24 10:57:47;;;;;;;5.13;3.83;;;5.10;99.90;;;;;;5038810;28;20042;-80
2022/01/24 11:00:18;;;;;;;4.40;3.28;;;5.10;99.90;;;;;;5020874;28;20042;-80
2022/01/24 11:02:48;;;;;;;4.93;3.63;;;5.10;99.90;;;;;;5022224;28;20026;-81
2022/01/24 11:05:15;;;;;;;3.75;2.88;;;5.10;99.90;;;;;;5042793;28;20025;-80
2022/01/24 11:08:11;;;;;;;3.45;2.20;;;5.10;99.90;;;;;;5023162;28;20401;-80
2022/01/24 11:10:44;;;;;;;3.78;2.58;;;5.10;99.90;;;;;;5040587;28;20041;-80
2022/01/24 11:13:10;;;;;;;6.10;4.25;;;5.10;99.90;;;;;;5040437;28;20072;-80
2022/01/24 11:15:39;;;;;;;5.70;4.70;;;5.10;99.90;;;;;;5057799;28;20021;-80
2022/01/24 11:18:06;;;;;;;5.72;4.22;;;5.20;99.90;;;;;;5040134;28;20034;-80
2022/01/24 11:20:35;;;;;;;4.85;4.10;;;5.20;99.90;;;;;;5025679;28;20042;-81
2022/01/24 11:23:06;;;;;;;5.63;4.40;;;5.20;99.90;;;;;;5020056;28;20116;-81
2022/01/24 11:25:35;;;;;;;5.28;4.13;;;5.20;99.90;;;;;;5036674;28;20029;-81
2022/01/24 11:28:01;;;;;;;6.30;4.57;;;5.20;99.90;;;;;;5041255;28;20029;-81
2022/01/24 11:30:32;;;;;;;5.75;4.65;;;5.20;99.90;;;;;;5041062;28;20037;-80
2022/01/24 11:33:16;;;;;;;5.78;4.35;;;5.30;99.90;;;;;;5040096;28;20041;-81
2022/01/24 11:35:52;;;;;;;5.60;3.15;;;5.20;99.90;;;;;;5019575;28;20037;-80
2022/01/24 11:38:42;;;;;;;5.10;4.43;;;5.30;99.90;;;;;;5023406;28;20149;-80
2022/01/24 11:41:23;;;;;;;5.65;4.93;;;5.20;99.90;;;;;;5055287;28;20029;-81
2022/01/24 11:43:55;;;;;;;6.57;4.85;;;5.30;99.90;;;;;;5040364;28;20040;-81
2022/01/24 11:46:49;;;;;;;6.00;4.78;;;5.20;99.90;;;;;;5020464;28;20095;-81
2022/01/24 11:49:27;;;;;;;7.65;5.97;;;5.20;99.90;;;;;;5019825;28;20026;-80
2022/01/24 11:52:06;;;;;;;5.85;5.13;;;5.20;99.90;;;;;;5023365;28;20029;-80
2022/01/24 11:54:53;;;;;;;4.47;3.27;;;5.30;99.90;;;;;;5022454;28;20030;-81
2022/01/24 11:57:33;;;;;;;6.60;5.60;;;5.30;99.90;;;;;;5024220;28;20292;-80
2022/01/24 12:00:03;;;;;;;6.50;5.15;;;5.30;99.90;;;;;;5021793;28;20116;-80
2022/01/24 12:02:39;;;;;;;9.77;6.72;;;5.20;99.90;;;;;;5040576;28;20029;-81
2022/01/24 12:05:16;;;;;;;8.70;7.22;;;5.20;99.90;;;;;;5039726;28;20037;-81
2022/01/24 12:07:55;;;;;;;9.00;7.47;;;5.20;99.90;;;;;;5020848;28;20056;-80
2022/01/24 12:10:21;;;;;;;8.45;6.72;;;5.20;99.90;;;;;;5056320;28;20399;-80
2022/01/24 12:12:51;;;;;;;6.55;5.28;;;5.20;99.90;;;;;;5023770;28;20025;-81
2022/01/24 12:15:41;;;;;;;7.82;6.03;;;5.30;99.90;;;;;;5037701;28;20085;-81
2022/01/24 12:18:27;;;;;;;6.43;5.47;;;5.30;99.90;;;;;;5034680;28;20053;-79
2022/01/24 12:21:06;;;;;;;6.93;5.00;;;5.30;99.90;;;;;;5055685;28;20059;-80
2022/01/24 12:23:34;;;;;;;6.75;5.38;;;5.30;99.90;;;;;;5033698;28;20470;-80
2022/01/24 12:26:08;;;;;;;6.72;4.65;;;5.30;99.90;;;;;;5023095;28;20033;-79
2022/01/24 12:28:46;;;;;;;6.97;5.43;;;5.40;99.90;;;;;;5040395;28;20061;-79
2022/01/24 12:31:51;;;;;;;9.40;6.35;;;5.30;99.90;;;;;;5051074;28;20025;-79
2022/01/24 12:34:36;;;;;;;8.88;6.82;;;5.40;99.90;;;;;;5016880;28;20042;-79
2022/01/24 12:37:08;;;;;;;5.60;4.78;;;5.40;99.90;;;;;;5016173;28;20040;-80
2022/01/24 12:39:58;;;;;;;8.88;7.95;;;5.40;99.90;;;;;;5002039;28;20046;-80
2022/01/24 12:42:39;;;;;;;9.63;7.43;;;5.30;99.90;;;;;;5001132;28;20030;-79
2022/01/24 12:48:18;;;;;;;8.18;6.78;;;5.40;99.90;;;;;;5014052;28;20034;-80
2022/01/24 12:50:47;;;;;;;10.88;7.88;;;5.40;99.90;;;;;;4996403;28;20034;-80
2022/01/24 12:53:15;;;;;;;8.27;7.07;;;5.40;99.90;;;;;;4996163;28;20508;-80
2022/01/24 13:14:30;;;;;;;5.97;4.78;;;5.50;99.90;;;;;;5044432;28;20096;-80
2022/01/24 13:22:48;;;;;;;5.68;5.05;;;5.50;99.90;;;;;;5043456;28;20029;-81
2022/01/24 13:25:23;;;;;;;6.47;4.88;;;5.50;99.90;;;;;;5038449;28;20073;-80
2022/01/24 13:27:50;;;;;;;8.23;6.15;;;5.50;99.90;;;;;;5041204;28;20551;-80
2022/01/24 13:30:25;;;;;;;8.40;7.22;;;5.50;99.90;;;;;;4999930;28;20045;-80
2022/01/24 13:32:57;;;;;;;7.75;5.65;;;5.50;99.90;;;;;;5038622;28;20038;-79
2022/01/24 13:35:31;;;;;;;7.80;5.43;;;5.50;99.90;;;;;;5045388;28;20026;-80
2022/01/24 13:38:00;;;;;;;6.95;5.93;;;5.60;99.90;;;;;;5064236;28;20044;-79
2022/01/24 13:40:30;;;;;;;7.63;6.32;;;5.60;99.90;;;;;;5022328;28;20126;-80
2022/01/24 13:42:56;;;;;;;6.18;5.57;;;5.60;99.90;;;;;;5024328;28;20447;-80
2022/01/24 13:45:22;;;;;;;8.88;6.95;;;5.60;99.90;;;;;;5026342;28;20047;-80
2022/01/24 13:47:58;;;;;;;8.40;6.15;;;5.60;99.90;;;;;;5025516;28;20021;-80
2022/01/24 13:50:25;;;;;;;7.82;7.05;;;5.60;99.90;;;;;;5022479;28;20052;-80
2022/01/24 13:52:51;;;;;;;9.90;7.05;;;5.50;99.90;;;;;;5025758;28;20022;-81
2022/01/24 13:55:20;;;;;;;9.52;7.78;;;5.60;99.90;;;;;;5043985;28;20033;-81
2022/01/24 13:57:47;;;;;;;9.82;8.35;;;5.60;99.90;;;;;;5023379;28;20060;-80
2022/01/24 14:00:31;;;;;;;7.25;6.50;;;5.60;99.90;;;;;;5025556;28;20033;-80
2022/01/24 14:03:11;;;;;;;7.28;6.10;;;5.60;99.90;;;;;;5020759;28;20418;-80
2022/01/24 14:05:37;;;;;;;8.90;7.90;;;5.60;99.90;;;;;;5025110;28;20389;-81
2022/01/24 14:08:16;;;;;;;8.55;6.95;;;5.60;99.90;;;;;;5043250;28;20355;-81
2022/01/24 14:10:43;;;;;;;10.25;7.68;;;5.60;99.90;;;;;;5041480;28;20117;-81
2022/01/24 14:13:10;;;;;;;8.05;7.22;;;5.60;99.90;;;;;;5042814;28;20173;-80
2022/01/24 14:20:46;;;;;;;10.82;8.50;;;5.50;99.90;;;;;;5043326;28;20034;-81
2022/01/24 14:23:34;;;;;;;9.48;8.48;;;5.50;99.90;;;;;;5055770;28;20056;-81
2022/01/24 14:26:18;;;;;;;9.25;8.25;;;5.60;99.90;;;;;;5026319;28;20040;-81
2022/01/24 14:28:44;;;;;;;9.55;8.20;;;5.50;99.90;;;;;;5058828;28;20034;-80
2022/01/24 14:31:14;;;;;;;9.10;7.65;;;5.50;99.90;;;;;;5044366;28;20449;-80
2022/01/24 14:33:44;;;;;;;8.20;7.28;;;5.50;99.90;;;;;;5042023;28;20134;-81
2022/01/24 14:36:16;;;;;;;6.43;5.75;;;5.50;99.90;;;;;;5043391;28;20383;-80
2022/01/24 14:38:47;;;;;;;8.70;7.53;;;5.50;99.90;;;;;;5038857;28;20042;-81
2022/01/24 14:41:25;;;;;;;9.65;8.65;;;5.50;99.90;;;;;;5056898;28;20077;-81
2022/01/24 14:46:38;;;;;;;9.32;8.40;;;5.40;99.90;;;;;;5056862;28;20039;-81
2022/01/24 14:49:16;;;;;;;8.85;7.95;;;5.40;99.90;;;;;;5021502;28;20036;-80
2022/01/24 14:51:45;;;;;;;9.38;8.35;;;5.40;99.90;;;;;;5020136;28;20101;-81
2022/01/24 14:54:13;;;;;;;9.77;8.73;;;5.40;99.90;;;;;;5041345;28;20033;-80
2022/01/24 14:56:42;;;;;;;10.07;9.00;;;5.40;99.90;;;;;;5020699;28;20025;-81
2022/01/24 14:59:08;;;;;;;10.32;9.23;;;5.40;99.90;;;;;;5057261;28;20043;-80
2022/01/24 15:01:35;;;;;;;10.20;8.95;;;5.40;99.90;;;;;;5058475;28;20026;-80
2022/01/24 15:04:01;;;;;;;9.95;8.93;;;5.40;99.90;;;;;;5042074;28;20037;-80
2022/01/24 15:06:27;;;;;;;9.93;8.18;;;5.40;99.90;;;;;;5037771;28;20096;-80
2022/01/24 15:08:59;;;;;;;9.02;8.13;;;5.30;99.90;;;;;;5041080;28;20026;-81
2022/01/24 15:11:29;;;;;;;8.82;7.93;;;5.30;99.90;;;;;;5021492;28;20044;-80
2022/01/24 15:14:11;;;;;;;9.52;7.88;;;5.40;99.90;;;;;;5038034;28;20033;-80
2022/01/24 15:16:52;;;;;;;7.18;6.00;;;5.40;99.90;;;;;;5041935;28;20475;-81
2022/01/24 15:27:33;;;;;;;8.02;7.03;;;5.40;99.90;;;;;;5036948;28;20044;-81
2022/01/24 15:29:59;;;;;;;7.15;6.28;;;5.30;99.90;;;;;;5037317;28;20029;-81
2022/01/24 15:32:24;;;;;;;8.85;7.95;;;5.30;99.90;;;;;;5040475;28;20045;-81
2022/01/24 15:34:50;;;;;;;9.05;7.45;;;5.30;99.90;;;;;;5037027;28;20056;-81
2022/01/24 15:37:16;;;;;;;8.07;7.20;;;5.30;99.90;;;;;;5040801;28;20029;-80
2022/01/24 15:39:41;;;;;;;8.45;7.55;;;5.30;99.90;;;;;;5040768;28;20037;-81
2022/01/24 15:42:16;;;;;;;9.02;7.93;;;5.20;99.90;;;;;;5022274;28;20406;-82
2022/01/24 15:47:37;;;;;;;8.88;7.65;;;5.20;99.90;;;;;;5036426;28;20025;-83
2022/01/24 15:50:07;;;;;;;9.73;8.73;;;5.20;99.90;;;;;;5019967;28;20056;-82
2022/01/24 15:52:33;;;;;;;7.97;7.18;;;5.20;99.90;;;;;;5038250;28;20090;-83
2022/01/24 15:55:05;;;;;;;8.50;7.70;;;5.20;99.90;;;;;;5040975;28;20058;-81
2022/01/24 15:57:41;;;;;;;8.73;7.72;;;5.10;99.90;;;;;;5040989;28;20059;-82
2022/01/24 16:00:17;;;;;;;8.07;7.28;;;5.10;99.90;;;;;;5020129;28;20125;-82
2022/01/24 16:02:45;;;;;;;9.48;8.23;;;5.10;99.90;;;;;;5040115;28;20021;-82